createdAt,value
2018-09-29T00:01:40.054Z,9.47
2018-09-29T00:04:08.656Z,8.37
2018-09-29T00:06:37.319Z,12.03
2018-09-29T00:09:08.510Z,8.50
2018-09-29T00:11:37.042Z,8.63
2018-09-29T00:14:05.708Z,11.47
2018-09-29T00:16:34.421Z,8.93
2018-09-29T00:19:03.125Z,10.90
2018-09-29T00:21:31.678Z,6.90
2018-09-29T00:24:00.737Z,13.07
2018-09-29T00:26:29.315Z,8.57
2018-09-29T00:28:57.915Z,9.33
2018-09-29T00:31:26.834Z,6.83
2018-09-29T00:33:56.202Z,10.13
2018-09-29T00:36:24.921Z,8.43
2018-09-29T00:38:53.560Z,9.00
2018-09-29T00:41:22.206Z,8.53
2018-09-29T00:43:50.866Z,11.40
2018-09-29T00:46:19.857Z,11.00
2018-09-29T00:48:49.081Z,11.87
2018-09-29T00:51:17.660Z,13.33
2018-09-29T00:53:46.486Z,7.87
2018-09-29T00:56:15.175Z,11.33
2018-09-29T00:58:44.346Z,10.23
2018-09-29T01:01:12.917Z,8.53
2018-09-29T01:03:41.521Z,9.57
2018-09-29T01:06:10.093Z,8.80
2018-09-29T01:08:38.698Z,12.30
2018-09-29T01:11:07.489Z,11.13
2018-09-29T01:13:36.646Z,12.30
2018-09-29T01:16:05.565Z,12.00
2018-09-29T01:18:34.196Z,11.80
2018-09-29T01:21:05.789Z,9.03
2018-09-29T01:23:34.903Z,11.63
2018-09-29T01:26:04.146Z,13.30
2018-09-29T01:28:32.698Z,11.03
2018-09-29T01:31:01.410Z,11.03
2018-09-29T01:33:30.633Z,8.47
2018-09-29T01:35:59.181Z,11.10
2018-09-29T01:41:02.866Z,8.77
2018-09-29T01:43:31.482Z,8.90
2018-09-29T01:46:00.009Z,9.97
2018-09-29T01:48:30.649Z,10.30
2018-09-29T01:50:59.393Z,10.17
2018-09-29T01:53:28.138Z,9.43
2018-09-29T01:55:57.450Z,11.17
2018-09-29T01:58:26.023Z,8.00
2018-09-29T02:00:54.730Z,9.77
2018-09-29T02:03:23.422Z,12.53
2018-09-29T02:05:52.014Z,13.43
2018-09-29T02:08:20.725Z,11.97
2018-09-29T02:10:49.621Z,11.23
2018-09-29T02:13:18.957Z,11.73
2018-09-29T02:15:47.592Z,8.07
2018-09-29T02:18:16.107Z,10.50
2018-09-29T02:20:45.242Z,11.67
2018-09-29T02:23:13.838Z,10.17
2018-09-29T02:25:42.436Z,11.17
2018-09-29T02:28:11.047Z,10.57
2018-09-29T02:30:39.851Z,11.73
2018-09-29T02:33:08.689Z,8.87
2018-09-29T02:35:37.754Z,5.93
2018-09-29T02:38:06.621Z,9.60
2018-09-29T02:40:35.168Z,12.50
2018-09-29T02:43:03.790Z,7.97
2018-09-29T02:45:32.529Z,11.37
2018-09-29T02:48:01.166Z,9.17
2018-09-29T02:50:30.263Z,8.93
2018-09-29T02:52:58.856Z,7.30
2018-09-29T02:55:27.598Z,15.80
2018-09-29T02:57:56.301Z,8.80
2018-09-29T03:00:25.122Z,11.03
2018-09-29T03:02:53.714Z,16.47
2018-09-29T03:05:22.316Z,11.23
2018-09-29T03:07:51.109Z,9.40
2018-09-29T03:10:19.866Z,8.03
2018-09-29T03:12:48.424Z,6.27
2018-09-29T03:15:17.193Z,11.07
2018-09-29T03:17:45.779Z,10.93
2018-09-29T03:20:14.362Z,8.37
2018-09-29T03:22:42.912Z,8.87
2018-09-29T03:25:11.577Z,7.33
2018-09-29T03:27:40.222Z,8.03
2018-09-29T03:30:08.837Z,8.93
2018-09-29T03:32:37.376Z,9.27
2018-09-29T03:35:06.499Z,9.20
2018-09-29T03:37:35.733Z,8.33
2018-09-29T03:40:05.129Z,10.37
2018-09-29T03:42:33.706Z,11.20
2018-09-29T03:45:02.602Z,12.13
2018-09-29T03:47:32.022Z,12.23
2018-09-29T03:50:00.634Z,11.20
2018-09-29T03:52:29.180Z,12.73
2018-09-29T03:54:57.793Z,10.23
2018-09-29T03:57:26.378Z,10.37
2018-09-29T03:59:54.986Z,11.20
2018-09-29T04:02:23.650Z,6.30
2018-09-29T04:04:52.680Z,12.20
2018-09-29T04:07:21.262Z,12.37
2018-09-29T04:09:50.866Z,9.30
2018-09-29T04:12:19.446Z,6.90
2018-09-29T04:14:48.339Z,9.13
2018-09-29T04:17:16.887Z,8.90
2018-09-29T04:19:45.627Z,14.10
2018-09-29T04:22:14.210Z,11.87
2018-09-29T04:24:42.945Z,11.87
2018-09-29T04:27:11.914Z,11.07
2018-09-29T04:29:40.700Z,8.33
2018-09-29T04:32:09.298Z,8.40
2018-09-29T04:34:37.883Z,10.10
2018-09-29T04:37:06.877Z,9.00
2018-09-29T04:39:35.508Z,13.50
2018-09-29T04:42:04.368Z,13.73
2018-09-29T04:44:33.232Z,13.80
2018-09-29T04:47:01.909Z,8.93
2018-09-29T04:49:30.530Z,11.70
2018-09-29T04:51:59.094Z,10.93
2018-09-29T04:54:27.733Z,9.23
2018-09-29T04:56:56.314Z,10.33
2018-09-29T04:59:25.230Z,12.50
2018-09-29T05:01:54.485Z,7.43
2018-09-29T05:04:23.901Z,8.20
2018-09-29T05:06:52.509Z,10.47
2018-09-29T05:09:21.268Z,8.27
2018-09-29T05:11:49.861Z,11.03
2018-09-29T05:14:18.977Z,7.97
2018-09-29T05:16:47.531Z,9.27
2018-09-29T05:19:16.166Z,8.40
2018-09-29T05:21:45.045Z,6.77
2018-09-29T05:24:13.753Z,7.40
2018-09-29T05:26:42.613Z,8.97
2018-09-29T05:29:11.166Z,8.17
2018-09-29T05:31:40.403Z,7.10
2018-09-29T05:34:08.950Z,12.17
2018-09-29T05:36:37.629Z,8.20
2018-09-29T05:39:07.854Z,9.23
2018-09-29T05:41:36.401Z,7.77
2018-09-29T05:44:05.094Z,10.40
2018-09-29T05:46:34.081Z,9.83
2018-09-29T05:49:03.138Z,5.33
2018-09-29T05:51:32.073Z,10.43
2018-09-29T05:54:00.825Z,7.10
2018-09-29T05:56:29.604Z,7.17
2018-09-29T05:58:58.203Z,8.37
2018-09-29T06:01:27.096Z,5.47
2018-09-29T06:03:56.504Z,9.60
2018-09-29T06:06:25.173Z,10.73
2018-09-29T06:08:53.820Z,5.20
2018-09-29T06:11:22.449Z,6.63
2018-09-29T06:13:51.050Z,5.20
2018-09-29T06:16:19.798Z,6.50
2018-09-29T06:18:49.034Z,6.80
2018-09-29T06:21:17.569Z,6.40
2018-09-29T06:23:46.292Z,6.57
2018-09-29T06:26:15.242Z,8.50
2018-09-29T06:28:43.800Z,5.63
2018-09-29T06:31:12.498Z,6.30
2018-09-29T06:33:41.590Z,4.33
2018-09-29T06:36:10.134Z,7.43
2018-09-29T06:38:39.310Z,6.97
2018-09-29T06:41:08.927Z,5.93
2018-09-29T06:43:37.647Z,6.23
2018-09-29T06:46:06.459Z,8.83
2018-09-29T06:48:35.166Z,5.17
2018-09-29T06:51:04.324Z,8.35
2018-09-29T06:53:32.882Z,6.28
2018-09-29T06:56:01.957Z,9.53
2018-09-29T06:58:32.280Z,5.10
2018-09-29T07:01:01.599Z,10.32
2018-09-29T07:03:30.226Z,7.10
2018-09-29T07:05:58.803Z,6.03
2018-09-29T07:08:27.689Z,8.45
2018-09-29T07:10:56.907Z,10.55
2018-09-29T07:13:26.030Z,5.92
2018-09-29T07:15:55.242Z,6.15
2018-09-29T07:18:24.514Z,7.05
2018-09-29T07:20:53.703Z,9.63
2018-09-29T07:23:23.380Z,5.70
2018-09-29T07:25:52.610Z,6.00
2018-09-29T07:28:21.414Z,6.17
2018-09-29T07:30:51.156Z,7.58
2018-09-29T07:33:19.910Z,9.58
2018-09-29T07:35:49.248Z,7.60
2018-09-29T07:38:18.654Z,10.25
2018-09-29T07:40:47.909Z,8.00
2018-09-29T07:43:17.070Z,5.90
2018-09-29T07:45:46.251Z,5.75
2018-09-29T07:48:15.450Z,6.33
2018-09-29T07:50:44.602Z,58.02
2018-09-29T07:53:13.730Z,7.55
2018-09-29T07:55:42.910Z,5.75
2018-09-29T07:58:12.086Z,6.87
2018-09-29T08:00:41.185Z,8.60
2018-09-29T08:03:10.368Z,7.53
2018-09-29T08:05:39.715Z,5.92
2018-09-29T08:08:08.768Z,6.83
2018-09-29T08:10:37.822Z,6.12
2018-09-29T08:13:06.388Z,4.92
2018-09-29T08:15:34.954Z,4.53
2018-09-29T08:18:03.551Z,7.37
2018-09-29T08:20:32.227Z,4.65
2018-09-29T08:23:00.977Z,5.00
2018-09-29T08:25:29.601Z,5.37
2018-09-29T08:27:58.166Z,6.10
2018-09-29T08:30:26.771Z,6.77
2018-09-29T08:32:55.322Z,8.10
2018-09-29T08:35:23.866Z,4.27
2018-09-29T08:37:52.470Z,4.47
2018-09-29T08:40:21.334Z,10.77
2018-09-29T08:42:50.089Z,6.77
2018-09-29T08:45:18.685Z,5.57
2018-09-29T08:47:47.331Z,4.33
2018-09-29T08:50:16.010Z,4.50
2018-09-29T08:52:44.768Z,5.93
2018-09-29T08:55:13.467Z,4.87
2018-09-29T08:57:42.039Z,3.37
2018-09-29T09:00:10.622Z,5.10
2018-09-29T09:02:39.215Z,4.97
2018-09-29T09:05:07.788Z,4.60
2018-09-29T09:07:36.387Z,5.77
2018-09-29T09:10:05.290Z,4.57
2018-09-29T09:12:33.966Z,6.00
2018-09-29T09:15:02.610Z,5.90
2018-09-29T09:17:31.205Z,7.17
2018-09-29T09:19:59.879Z,3.30
2018-09-29T09:22:28.462Z,3.83
2018-09-29T09:24:57.159Z,5.00
2018-09-29T09:27:25.722Z,3.87
2018-09-29T09:29:54.436Z,3.97
2018-09-29T09:32:23.353Z,7.20
2018-09-29T09:34:52.032Z,14.80
2018-09-29T09:37:20.777Z,4.77
2018-09-29T09:39:49.332Z,14.43
2018-09-29T09:42:17.896Z,9.77
2018-09-29T09:44:46.499Z,5.23
2018-09-29T09:47:15.261Z,5.17
2018-09-29T09:49:44.110Z,4.77
2018-09-29T09:52:12.859Z,13.77
2018-09-29T09:54:41.513Z,11.40
2018-09-29T09:57:10.100Z,7.07
2018-09-29T09:59:38.666Z,3.63
2018-09-29T10:02:12.677Z,7.63
2018-09-29T10:04:47.709Z,5.90
2018-09-29T10:07:16.309Z,5.63
2018-09-29T10:09:46.093Z,4.17
2018-09-29T10:12:14.773Z,5.67
2018-09-29T10:14:45.735Z,3.53
2018-09-29T10:17:14.423Z,3.20
2018-09-29T10:19:43.141Z,5.80
2018-09-29T10:22:11.771Z,3.13
2018-09-29T10:24:40.303Z,2.93
2018-09-29T10:27:08.894Z,3.50
2018-09-29T10:29:37.488Z,4.67
2018-09-29T10:32:06.129Z,6.30
2018-09-29T10:34:34.817Z,7.70
2018-09-29T10:37:03.377Z,3.00
2018-09-29T10:39:31.949Z,7.53
2018-09-29T10:42:00.568Z,3.90
2018-09-29T10:44:29.163Z,2.67
2018-09-29T10:46:57.697Z,4.10
2018-09-29T10:51:53.492Z,3.23
2018-09-29T10:54:22.275Z,4.37
2018-09-29T10:56:50.876Z,4.03
2018-09-29T10:59:20.082Z,6.40
2018-09-29T11:01:48.909Z,3.87
2018-09-29T11:04:17.475Z,4.67
2018-09-29T11:06:46.075Z,4.13
2018-09-29T11:09:14.743Z,4.13
2018-09-29T11:11:43.330Z,4.17
2018-09-29T11:14:11.956Z,2.87
2018-09-29T11:16:40.701Z,3.23
2018-09-29T11:19:09.298Z,4.30
2018-09-29T11:21:37.845Z,3.50
2018-09-29T11:24:06.527Z,2.17
2018-09-29T11:26:35.394Z,4.40
2018-09-29T11:29:03.956Z,4.23
2018-09-29T11:31:32.481Z,3.03
2018-09-29T11:34:01.041Z,3.63
2018-09-29T11:36:29.669Z,3.60
2018-09-29T11:38:58.250Z,3.17
2018-09-29T11:41:26.929Z,0.70
2018-09-29T11:43:55.642Z,2.60
2018-09-29T11:46:24.325Z,2.00
2018-09-29T11:48:52.927Z,2.00
2018-09-29T11:51:21.509Z,3.00
2018-09-29T11:53:50.030Z,1.70
2018-09-29T11:56:18.671Z,2.83
2018-09-29T11:58:47.490Z,2.30
2018-09-29T12:01:16.170Z,2.33
2018-09-29T12:03:45.028Z,2.80
2018-09-29T12:06:13.616Z,3.00
2018-09-29T12:08:42.396Z,2.33
2018-09-29T12:11:10.989Z,2.87
2018-09-29T12:13:39.533Z,3.60
2018-09-29T12:16:08.393Z,2.37
2018-09-29T12:18:37.166Z,2.00
2018-09-29T12:21:05.808Z,2.23
2018-09-29T12:23:34.393Z,3.10
2018-09-29T12:26:02.936Z,3.60
2018-09-29T12:28:31.533Z,2.97
2018-09-29T12:31:00.165Z,2.27
2018-09-29T12:33:28.805Z,2.90
2018-09-29T12:35:57.432Z,1.67
2018-09-29T12:38:26.025Z,2.17
2018-09-29T12:40:54.639Z,57.07
2018-09-29T12:43:23.201Z,31.27
2018-09-29T12:45:51.759Z,7.13
2018-09-29T12:48:20.376Z,10.90
2018-09-29T12:50:49.032Z,4.37
2018-09-29T12:53:17.753Z,2.30
2018-09-29T12:55:46.424Z,3.77
2018-09-29T12:58:14.975Z,2.30
2018-09-29T13:00:43.648Z,3.70
2018-09-29T13:03:12.213Z,4.90
2018-09-29T13:05:40.831Z,4.40
2018-09-29T13:08:09.490Z,4.03
2018-09-29T13:10:38.054Z,2.77
2018-09-29T13:13:07.142Z,33.30
2018-09-29T13:15:35.714Z,11.20
2018-09-29T13:18:04.339Z,8.57
2018-09-29T13:20:32.878Z,3.83
2018-09-29T13:23:01.521Z,3.33
2018-09-29T13:25:30.337Z,4.97
2018-09-29T13:27:59.010Z,5.70
2018-09-29T13:30:27.625Z,3.80
2018-09-29T13:32:56.162Z,4.10
2018-09-29T13:35:25.030Z,3.20
2018-09-29T13:37:53.630Z,2.63
2018-09-29T13:40:22.228Z,3.47
2018-09-29T13:42:50.981Z,3.03
2018-09-29T13:45:19.853Z,4.07
2018-09-29T13:47:49.077Z,5.10
2018-09-29T13:50:17.845Z,4.47
2018-09-29T13:52:46.404Z,4.77
2018-09-29T13:55:15.162Z,4.40
2018-09-29T13:57:43.726Z,4.17
2018-09-29T14:00:12.357Z,7.33
2018-09-29T14:02:41.108Z,41.10
2018-09-29T14:05:10.409Z,10.07
2018-09-29T14:07:39.693Z,12.07
2018-09-29T14:10:08.318Z,188.30
2018-09-29T14:12:37.094Z,6.13
2018-09-29T14:15:06.235Z,46.33
2018-09-29T14:17:35.382Z,8.13
2018-09-29T14:20:04.080Z,6.10
2018-09-29T14:22:32.883Z,8.50
2018-09-29T14:25:02.535Z,8.70
2018-09-29T14:27:31.297Z,8.80
2018-09-29T14:30:00.076Z,7.33
2018-09-29T14:32:28.974Z,6.17
2018-09-29T14:34:57.757Z,4.63
2018-09-29T14:37:26.373Z,5.60
2018-09-29T14:39:55.064Z,50.73
2018-09-29T14:42:23.949Z,11.93
2018-09-29T14:44:53.047Z,10.77
2018-09-29T14:47:22.847Z,4.60
2018-09-29T14:49:51.594Z,3.80
2018-09-29T14:52:20.443Z,4.17
2018-09-29T14:54:49.327Z,6.40
2018-09-29T14:57:17.977Z,10.43
2018-09-29T14:59:47.784Z,47.43
2018-09-29T15:02:16.334Z,4.70
2018-09-29T15:04:44.995Z,5.53
2018-09-29T15:07:13.606Z,32.43
2018-09-29T15:09:42.246Z,20.10
2018-09-29T15:12:10.830Z,12.47
2018-09-29T15:14:39.372Z,5.30
2018-09-29T15:17:07.956Z,25.83
2018-09-29T15:19:36.526Z,89.33
2018-09-29T15:22:05.130Z,14.07
2018-09-29T15:24:33.817Z,20.37
2018-09-29T15:27:04.391Z,27.83
2018-09-29T15:29:33.206Z,13.77
2018-09-29T15:32:02.029Z,7.60
2018-09-29T15:34:30.738Z,6.07
2018-09-29T15:36:59.361Z,5.37
2018-09-29T15:39:28.108Z,5.57
2018-09-29T15:41:56.667Z,43.70
2018-09-29T15:44:25.242Z,398.77
2018-09-29T15:46:54.021Z,99.57
2018-09-29T15:49:22.611Z,19.17
2018-09-29T15:51:51.181Z,8.83
2018-09-29T15:54:19.755Z,123.13
2018-09-29T15:56:48.329Z,21.43
2018-09-29T15:59:16.969Z,79.50
2018-09-29T16:01:45.525Z,77.50
2018-09-29T16:04:14.234Z,12.77
2018-09-29T16:06:42.863Z,13.37
2018-09-29T16:09:11.502Z,9.57
2018-09-29T16:11:41.212Z,16.70
2018-09-29T16:14:10.235Z,21.07
2018-09-29T16:16:38.928Z,17.07
2018-09-29T16:19:07.675Z,174.47
2018-09-29T16:21:37.400Z,136.23
2018-09-29T16:24:06.201Z,165.37
2018-09-29T16:26:35.581Z,67.97
2018-09-29T16:29:05.499Z,14.53
2018-09-29T16:31:34.329Z,68.00
2018-09-29T16:34:03.022Z,32.13
2018-09-29T16:36:31.640Z,37.10
2018-09-29T16:39:00.202Z,32.73
2018-09-29T16:41:28.787Z,44.83
2018-09-29T16:43:57.940Z,47.37
2018-09-29T16:46:26.521Z,84.50
2018-09-29T16:48:55.373Z,86.17
2018-09-29T16:51:25.570Z,76.37
2018-09-29T16:54:01.992Z,75.43
2018-09-29T16:56:30.610Z,62.97
2018-09-29T16:58:59.166Z,94.87
2018-09-29T17:01:27.983Z,154.73
2018-09-29T17:03:56.643Z,144.03
2018-09-29T17:06:25.497Z,115.60
2018-09-29T17:08:54.821Z,120.27
2018-09-29T17:11:23.374Z,108.97
2018-09-29T17:13:51.913Z,107.17
2018-09-29T17:16:20.464Z,106.90
2018-09-29T17:18:49.060Z,85.07
2018-09-29T17:21:17.661Z,88.33
2018-09-29T17:23:46.670Z,75.80
2018-09-29T17:26:15.430Z,54.87
2018-09-29T17:28:43.976Z,134.40
2018-09-29T17:31:12.552Z,118.03
2018-09-29T17:33:41.171Z,87.03
2018-09-29T17:36:09.712Z,54.17
2018-09-29T17:38:38.263Z,124.50
2018-09-29T17:41:07.044Z,136.27
2018-09-29T17:43:35.830Z,529.50
2018-09-29T17:46:04.392Z,775.60
2018-09-29T17:48:33.344Z,563.03
2018-09-29T17:51:01.894Z,553.33
2018-09-29T17:56:14.117Z,556.10
2018-09-29T17:58:44.887Z,476.33
2018-09-29T18:03:57.808Z,80.77
2018-09-29T18:06:26.669Z,49.50
2018-09-29T18:08:55.321Z,47.90
2018-09-29T18:11:24.156Z,76.63
2018-09-29T18:13:52.853Z,63.83
2018-09-29T18:16:21.539Z,44.83
2018-09-29T18:18:50.140Z,45.43
2018-09-29T18:21:20.369Z,57.13
2018-09-29T18:23:49.229Z,45.23
2018-09-29T18:26:17.935Z,42.07
2018-09-29T18:28:46.685Z,49.17
2018-09-29T18:31:15.353Z,49.30
2018-09-29T18:33:44.117Z,62.57
2018-09-29T18:36:12.913Z,731.60
2018-09-29T18:38:41.655Z,913.23
2018-09-29T18:41:10.352Z,1184.73
2018-09-29T18:43:49.211Z,1073.63
2018-09-29T18:46:22.192Z,924.63
2018-09-29T18:48:52.247Z,624.13
2018-09-29T18:51:21.010Z,444.13
2018-09-29T18:53:49.682Z,129.10
2018-09-29T18:56:18.242Z,46.27
2018-09-29T18:58:46.951Z,44.17
2018-09-29T19:01:15.646Z,60.60
2018-09-29T19:03:44.202Z,223.30
2018-09-29T19:06:13.307Z,79.63
2018-09-29T19:08:41.877Z,41.87
2018-09-29T19:11:10.647Z,119.73
2018-09-29T19:13:39.464Z,81.50
2018-09-29T19:16:08.162Z,91.67
2018-09-29T19:18:36.723Z,62.43
2018-09-29T19:21:05.313Z,80.83
2018-09-29T19:23:34.578Z,83.30
2018-09-29T19:26:03.163Z,180.83
2018-09-29T19:28:31.709Z,228.20
2018-09-29T19:31:00.440Z,176.60
2018-09-29T19:33:29.161Z,182.47
2018-09-29T19:35:57.735Z,165.57
2018-09-29T19:38:26.290Z,101.30
2018-09-29T19:40:54.858Z,103.87
2018-09-29T19:43:23.465Z,64.37
2018-09-29T19:45:52.095Z,76.03
2018-09-29T19:48:21.042Z,75.90
2018-09-29T19:50:49.776Z,63.87
2018-09-29T19:53:18.758Z,52.70
2018-09-29T19:55:47.351Z,54.93
2018-09-29T19:58:15.926Z,40.93
2018-09-29T20:00:44.466Z,37.87
2018-09-29T20:03:13.021Z,35.63
2018-09-29T20:05:41.803Z,38.67
2018-09-29T20:08:10.426Z,36.83
2018-09-29T20:10:39.085Z,46.13
2018-09-29T20:13:07.657Z,98.47
2018-09-29T20:15:36.208Z,135.87
2018-09-29T20:18:04.752Z,150.67
2018-09-29T20:20:33.337Z,138.57
2018-09-29T20:23:02.128Z,124.43
2018-09-29T20:25:30.744Z,94.40
2018-09-29T20:27:59.409Z,78.00
2018-09-29T20:30:28.242Z,77.67
2018-09-29T20:32:57.030Z,66.77
2018-09-29T20:35:25.637Z,72.93
2018-09-29T20:37:54.198Z,89.77
2018-09-29T20:40:22.950Z,83.17
2018-09-29T20:42:52.091Z,103.87
2018-09-29T20:45:21.278Z,90.90
2018-09-29T20:47:49.837Z,84.37
2018-09-29T20:50:18.435Z,72.30
2018-09-29T20:52:46.955Z,71.93
2018-09-29T20:55:15.554Z,118.90
2018-09-29T20:57:44.166Z,168.67
2018-09-29T21:00:12.828Z,237.40
2018-09-29T21:02:41.595Z,248.23
2018-09-29T21:05:10.174Z,194.23
2018-09-29T21:07:38.819Z,120.13
2018-09-29T21:10:07.417Z,100.40
2018-09-29T21:12:35.983Z,91.13
2018-09-29T21:15:04.591Z,177.17
2018-09-29T21:17:33.289Z,116.40
2018-09-29T21:20:01.933Z,152.63
2018-09-29T21:22:30.567Z,189.07
2018-09-29T21:24:59.121Z,170.33
2018-09-29T21:27:27.666Z,159.63
2018-09-29T21:29:56.242Z,140.23
2018-09-29T21:32:24.870Z,118.90
2018-09-29T21:34:53.686Z,89.17
2018-09-29T21:37:22.936Z,143.53
2018-09-29T21:39:51.517Z,129.17
2018-09-29T21:42:20.114Z,103.07
2018-09-29T21:44:48.809Z,120.30
2018-09-29T21:47:17.584Z,113.90
2018-09-29T21:49:46.244Z,117.10
2018-09-29T21:52:14.994Z,109.10
2018-09-29T21:54:43.914Z,88.50
2018-09-29T21:57:14.678Z,60.87
2018-09-29T21:59:43.478Z,61.23
2018-09-29T22:02:12.042Z,75.97
2018-09-29T22:04:40.728Z,82.70
2018-09-29T22:07:09.402Z,161.63
2018-09-29T22:09:37.984Z,139.33
2018-09-29T22:12:06.617Z,85.87
2018-09-29T22:14:35.301Z,45.37
2018-09-29T22:17:03.939Z,37.33
2018-09-29T22:19:32.485Z,36.03
2018-09-29T22:22:01.055Z,38.23
2018-09-29T22:24:29.641Z,40.50
2018-09-29T22:26:58.223Z,42.43
2018-09-29T22:29:26.761Z,42.87
2018-09-29T22:31:55.477Z,49.67
2018-09-29T22:34:25.998Z,42.77
2018-09-29T22:36:54.765Z,40.90
2018-09-29T22:39:23.460Z,41.80
2018-09-29T22:41:52.003Z,46.87
2018-09-29T22:44:20.558Z,40.70
2018-09-29T22:46:49.162Z,39.93
2018-09-29T22:49:17.740Z,44.73
2018-09-29T22:51:46.489Z,39.17
2018-09-29T22:54:15.111Z,31.63
2018-09-29T22:56:43.685Z,34.70
2018-09-29T22:59:12.237Z,34.07
2018-09-29T23:01:40.857Z,44.13
2018-09-29T23:04:09.413Z,42.50
2018-09-29T23:06:38.325Z,58.77
2018-09-29T23:09:09.443Z,50.27
2018-09-29T23:11:38.002Z,61.70
2018-09-29T23:14:06.718Z,51.27
2018-09-29T23:16:35.316Z,51.67
2018-09-29T23:19:03.931Z,57.70
2018-09-29T23:21:32.670Z,64.80
2018-09-29T23:24:01.275Z,52.03
2018-09-29T23:26:29.887Z,48.17
2018-09-29T23:28:58.454Z,42.47
2018-09-29T23:31:27.162Z,47.37
2018-09-29T23:33:55.764Z,52.93
2018-09-29T23:36:24.317Z,46.87
2018-09-29T23:38:52.974Z,39.17
2018-09-29T23:41:21.546Z,38.90
2018-09-29T23:43:50.099Z,42.47
2018-09-29T23:46:18.827Z,47.80
2018-09-29T23:48:47.570Z,47.83
2018-09-29T23:51:22.791Z,50.80
2018-09-29T23:53:51.355Z,55.13
2018-09-29T23:56:19.905Z,50.97
2018-09-29T23:58:48.761Z,56.67
